createdAt,value
2019-04-06T00:02:30.556Z,9.70
2019-04-06T00:04:59.151Z,9.30
2019-04-06T00:07:27.844Z,8.70
2019-04-06T00:12:24.693Z,8.80
2019-04-06T00:14:53.278Z,9.00
2019-04-06T00:17:21.822Z,8.70
2019-04-06T00:19:50.478Z,9.10
2019-04-06T00:22:19.092Z,8.90
2019-04-06T00:24:47.689Z,8.80
2019-04-06T00:29:44.454Z,8.60
2019-04-06T00:32:26.820Z,8.60
2019-04-06T00:34:55.428Z,8.40
2019-04-06T00:37:24.054Z,8.40
2019-04-06T00:39:52.626Z,8.40
2019-04-06T00:42:21.206Z,8.70
2019-04-06T00:44:49.753Z,8.80
2019-04-06T00:47:18.414Z,8.40
2019-04-06T00:52:15.215Z,8.60
2019-04-06T00:54:43.771Z,8.50
2019-04-06T00:57:12.350Z,8.20
2019-04-06T00:59:40.974Z,8.30
2019-04-06T01:02:10.152Z,8.40
2019-04-06T01:04:38.677Z,8.50
2019-04-06T01:07:07.351Z,8.40
2019-04-06T01:09:35.941Z,8.50
2019-04-06T01:12:04.667Z,8.50
2019-04-06T01:14:33.210Z,8.30
2019-04-06T01:17:01.787Z,8.20
2019-04-06T01:19:30.396Z,7.90
2019-04-06T01:21:58.927Z,8.00
2019-04-06T01:24:27.464Z,8.00
2019-04-06T01:26:56.015Z,8.20
2019-04-06T01:29:24.593Z,8.10
2019-04-06T01:31:53.133Z,8.10
2019-04-06T01:34:21.709Z,8.00
2019-04-06T01:36:50.253Z,8.10
2019-04-06T01:39:18.836Z,7.80
2019-04-06T01:41:47.373Z,7.90
2019-04-06T01:44:15.948Z,8.00
2019-04-06T01:46:44.492Z,8.10
2019-04-06T01:49:13.073Z,7.70
2019-04-06T01:51:41.616Z,7.30
2019-04-06T01:54:10.188Z,7.50
2019-04-06T01:56:38.735Z,7.20
2019-04-06T02:01:37.176Z,7.10
2019-04-06T02:04:05.753Z,7.00
2019-04-06T02:06:34.303Z,6.80
2019-04-06T02:09:04.818Z,6.90
2019-04-06T02:11:33.432Z,6.80
2019-04-06T02:14:02.140Z,6.60
2019-04-06T02:16:30.763Z,6.60
2019-04-06T02:18:59.405Z,6.60
2019-04-06T02:23:56.198Z,6.60
2019-04-06T02:26:30.975Z,6.60
2019-04-06T02:28:54.968Z,6.30
2019-04-06T02:31:33.911Z,6.50
2019-04-06T02:34:13.400Z,6.40
2019-04-06T02:36:43.592Z,6.40
2019-04-06T02:39:30.125Z,6.40
2019-04-06T02:46:56.951Z,6.40
2019-04-06T02:49:25.545Z,7.10
2019-04-06T02:51:54.069Z,6.40
2019-04-06T02:54:22.665Z,6.20
2019-04-06T02:56:51.362Z,6.20
2019-04-06T02:59:20.037Z,6.20
2019-04-06T03:04:16.941Z,6.30
2019-04-06T03:06:45.520Z,6.10
2019-04-06T03:09:14.206Z,6.20
2019-04-06T03:11:42.932Z,6.30
2019-04-06T03:14:11.621Z,6.10
2019-04-06T03:16:40.188Z,6.00
2019-04-06T03:21:37.195Z,5.70
2019-04-06T03:24:05.942Z,5.80
2019-04-06T03:26:34.642Z,5.80
2019-04-06T03:29:03.459Z,5.70
2019-04-06T03:31:32.033Z,5.80
2019-04-06T03:34:00.581Z,5.70
2019-04-06T03:38:57.373Z,5.60
2019-04-06T03:41:25.958Z,5.60
2019-04-06T03:43:54.501Z,5.90
2019-04-06T03:46:23.141Z,5.40
2019-04-06T03:48:51.628Z,5.20
2019-04-06T03:51:20.202Z,5.40
2019-04-06T03:56:17.011Z,5.40
2019-04-06T03:58:45.576Z,5.40
2019-04-06T04:01:14.193Z,5.80
2019-04-06T04:03:42.666Z,5.40
2019-04-06T04:06:11.256Z,5.50
2019-04-06T04:08:39.793Z,5.10
2019-04-06T04:13:36.753Z,5.20
2019-04-06T04:16:05.441Z,5.20
2019-04-06T04:18:34.015Z,5.20
2019-04-06T04:21:02.567Z,5.50
2019-04-06T04:23:31.133Z,5.60
2019-04-06T04:25:59.686Z,5.00
2019-04-06T04:28:28.249Z,5.00
2019-04-06T04:30:56.790Z,5.10
2019-04-06T04:33:25.390Z,5.20
2019-04-06T04:35:53.919Z,5.60
2019-04-06T04:38:22.740Z,5.80
2019-04-06T04:40:51.333Z,5.30
2019-04-06T04:43:20.153Z,5.00
2019-04-06T04:45:48.833Z,5.10
2019-04-06T04:48:17.346Z,5.30
2019-04-06T04:50:45.876Z,5.30
2019-04-06T04:53:14.458Z,5.40
2019-04-06T04:55:42.999Z,5.60
2019-04-06T04:58:11.568Z,5.40
2019-04-06T05:00:40.112Z,5.00
2019-04-06T05:03:08.689Z,5.20
2019-04-06T05:05:37.305Z,5.20
2019-04-06T05:08:05.950Z,5.30
2019-04-06T05:10:34.597Z,5.30
2019-04-06T05:13:04.706Z,5.40
2019-04-06T05:16:01.992Z,5.40
2019-04-06T05:18:30.561Z,5.60
2019-04-06T05:20:59.105Z,5.40
2019-04-06T05:23:27.690Z,5.40
2019-04-06T05:25:56.306Z,5.50
2019-04-06T05:28:24.889Z,6.10
2019-04-06T05:30:53.423Z,5.20
2019-04-06T05:33:22.001Z,5.40
2019-04-06T05:38:18.802Z,5.60
2019-04-06T05:40:47.352Z,5.90
2019-04-06T05:43:15.937Z,5.50
2019-04-06T05:45:44.472Z,5.60
2019-04-06T05:48:13.044Z,5.80
2019-04-06T05:53:10.018Z,6.00
2019-04-06T05:55:38.728Z,5.70
2019-04-06T05:58:10.071Z,6.00
2019-04-06T06:00:40.120Z,5.90
2019-04-06T06:03:10.174Z,5.90
2019-04-06T06:05:40.299Z,6.00
2019-04-06T06:08:08.466Z,6.10
2019-04-06T06:10:38.378Z,6.60
2019-04-06T06:13:07.265Z,6.60
2019-04-06T06:15:35.836Z,6.50
2019-04-06T06:18:04.508Z,5.90
2019-04-06T06:20:33.089Z,6.00
2019-04-06T06:23:01.636Z,6.10
2019-04-06T06:25:30.502Z,6.20
2019-04-06T06:27:59.211Z,6.20
2019-04-06T06:30:29.095Z,5.90
2019-04-06T06:32:57.738Z,6.20
2019-04-06T06:35:26.333Z,6.00
2019-04-06T06:40:23.266Z,7.00
2019-04-06T06:42:51.776Z,6.30
2019-04-06T06:45:20.387Z,6.40
2019-04-06T06:52:45.805Z,6.80
2019-04-06T06:57:42.761Z,6.80
2019-04-06T07:00:11.736Z,6.80
2019-04-06T07:02:40.285Z,7.30
2019-04-06T07:05:08.934Z,6.80
2019-04-06T07:07:37.472Z,6.80
2019-04-06T07:10:07.805Z,7.10
2019-04-06T07:12:36.376Z,7.10
2019-04-06T07:17:35.044Z,7.40
2019-04-06T07:20:05.056Z,7.10
2019-04-06T07:25:01.900Z,7.60
2019-04-06T07:27:30.449Z,8.00
2019-04-06T07:29:59.028Z,8.10
2019-04-06T07:32:27.573Z,8.10
2019-04-06T07:34:56.149Z,8.20
2019-04-06T07:39:52.949Z,8.70
2019-04-06T07:42:21.504Z,8.70
2019-04-06T07:44:50.040Z,9.00
2019-04-06T07:47:18.634Z,9.10
2019-04-06T07:49:47.178Z,8.80
2019-04-06T07:52:15.757Z,9.20
2019-04-06T07:54:44.300Z,9.20
2019-04-06T07:57:12.878Z,9.60
2019-04-06T07:59:41.425Z,9.50
2019-04-06T08:02:10.004Z,9.60
2019-04-06T08:04:38.553Z,9.50
2019-04-06T08:07:07.132Z,9.70
2019-04-06T08:09:35.676Z,9.60
2019-04-06T08:12:04.375Z,9.90
2019-04-06T08:14:32.916Z,10.40
2019-04-06T08:17:01.495Z,10.00
2019-04-06T08:19:30.045Z,10.30
2019-04-06T08:21:58.624Z,10.50
2019-04-06T08:24:27.182Z,10.70
2019-04-06T08:29:24.604Z,10.40
2019-04-06T08:31:53.340Z,10.80
2019-04-06T08:34:21.909Z,11.00
2019-04-06T08:36:50.552Z,10.60
2019-04-06T08:39:19.111Z,10.90
2019-04-06T08:46:44.160Z,11.10
2019-04-06T08:49:12.739Z,11.40
2019-04-06T08:51:41.295Z,11.20
2019-04-06T08:54:10.245Z,11.40
2019-04-06T08:56:38.805Z,11.00
2019-04-06T08:59:11.980Z,11.10
2019-04-06T09:01:37.616Z,11.40
2019-04-06T09:04:06.175Z,11.30
2019-04-06T09:06:34.720Z,11.30
2019-04-06T09:09:05.177Z,11.70
2019-04-06T09:11:33.725Z,11.40
2019-04-06T09:14:02.490Z,11.90
2019-04-06T09:16:31.025Z,12.00
2019-04-06T09:18:59.609Z,12.30
2019-04-06T09:21:28.446Z,12.00
2019-04-06T09:23:58.704Z,12.20
2019-04-06T09:26:27.241Z,12.20
2019-04-06T09:28:55.890Z,13.00
2019-04-06T09:31:24.540Z,12.50
2019-04-06T09:33:53.224Z,12.40
2019-04-06T09:36:21.921Z,12.60
2019-04-06T09:38:50.496Z,12.90
2019-04-06T09:41:19.116Z,12.90
2019-04-06T09:46:17.628Z,12.40
2019-04-06T09:48:53.879Z,12.50
2019-04-06T09:51:40.121Z,12.70
2019-04-06T09:54:16.297Z,13.30
2019-04-06T09:57:02.640Z,13.30
2019-04-06T09:59:37.205Z,13.10
2019-04-06T10:02:16.536Z,13.60
2019-04-06T10:05:02.064Z,14.00
2019-04-06T10:07:38.417Z,14.40
2019-04-06T10:13:04.150Z,14.70
2019-04-06T10:15:40.597Z,14.70
2019-04-06T10:18:10.792Z,14.70
2019-04-06T10:20:57.086Z,14.40
2019-04-06T10:23:30.179Z,14.50
2019-04-06T10:26:14.968Z,14.40
2019-04-06T10:28:45.169Z,14.50
2019-04-06T10:39:20.667Z,14.30
2019-04-06T10:42:06.058Z,14.30
2019-04-06T10:44:39.040Z,14.60
2019-04-06T10:47:09.437Z,14.70
2019-04-06T10:49:42.830Z,14.90
2019-04-06T10:54:58.118Z,15.00
2019-04-06T11:00:14.971Z,15.30
2019-04-06T11:03:00.441Z,15.60
2019-04-06T11:05:39.299Z,15.90
2019-04-06T11:08:21.318Z,15.60
2019-04-06T11:10:51.509Z,15.60
2019-04-06T11:13:38.217Z,15.90
2019-04-06T11:16:11.113Z,16.30
2019-04-06T11:18:53.305Z,15.60
2019-04-06T11:24:09.857Z,16.20
2019-04-06T11:26:40.057Z,16.30
2019-04-06T11:29:25.280Z,16.00
2019-04-06T11:32:10.702Z,16.40
2019-04-06T11:34:57.172Z,16.30
2019-04-06T11:37:30.660Z,16.50
2019-04-06T11:40:10.114Z,17.20
2019-04-06T11:42:40.481Z,16.80
2019-04-06T11:45:14.307Z,16.60
2019-04-06T11:48:01.020Z,16.70
2019-04-06T11:50:46.289Z,16.80
2019-04-06T11:53:22.688Z,17.20
2019-04-06T11:56:07.668Z,17.20
2019-04-06T11:58:40.604Z,17.40
2019-04-06T12:01:22.835Z,17.50
2019-04-06T12:04:09.624Z,17.30
2019-04-06T12:07:00.519Z,16.90
2019-04-06T12:09:30.192Z,17.60
2019-04-06T12:12:15.347Z,17.30
2019-04-06T12:14:45.569Z,17.80
2019-04-06T12:17:24.280Z,17.40
2019-04-06T12:20:10.804Z,17.40
2019-04-06T12:22:47.004Z,17.40
2019-04-06T12:25:20.200Z,17.60
2019-04-06T12:27:56.528Z,17.40
2019-04-06T12:30:36.641Z,17.40
2019-04-06T12:33:10.601Z,17.60
2019-04-06T12:35:40.821Z,17.20
2019-04-06T12:38:26.077Z,17.70
2019-04-06T12:40:59.028Z,17.50
2019-04-06T12:46:23.663Z,16.90
2019-04-06T12:48:56.809Z,16.70
2019-04-06T12:51:33.036Z,17.20
2019-04-06T12:54:06.125Z,16.70
2019-04-06T12:56:42.117Z,17.20
2019-04-06T12:59:12.314Z,17.80
2019-04-06T13:01:45.470Z,17.30
2019-04-06T13:04:15.653Z,17.50
2019-04-06T13:06:54.681Z,17.50
2019-04-06T13:09:27.367Z,17.50
2019-04-06T13:12:03.332Z,18.00
2019-04-06T13:14:38.985Z,17.30
2019-04-06T13:17:11.908Z,17.20
2019-04-06T13:19:47.944Z,17.30
2019-04-06T13:22:27.152Z,17.60
2019-04-06T13:24:57.337Z,17.40
2019-04-06T13:27:34.238Z,17.30
2019-04-06T13:32:40.401Z,17.50
2019-04-06T13:35:20.716Z,17.30
2019-04-06T13:38:09.236Z,17.30
2019-04-06T13:40:45.097Z,17.20
2019-04-06T13:43:18.022Z,17.10
2019-04-06T13:45:56.981Z,17.10
2019-04-06T13:48:43.638Z,17.20
2019-04-06T13:51:13.942Z,17.70
2019-04-06T13:53:52.796Z,17.40
2019-04-06T13:56:23.020Z,17.50
2019-04-06T13:58:53.206Z,17.60
2019-04-06T14:01:23.426Z,17.70
2019-04-06T14:04:05.964Z,17.30
2019-04-06T14:06:48.088Z,17.60
2019-04-06T14:09:33.341Z,17.30
2019-04-06T14:12:06.585Z,17.60
2019-04-06T14:14:42.569Z,17.10
2019-04-06T14:17:21.869Z,17.60
2019-04-06T14:19:57.831Z,17.30
2019-04-06T14:22:28.108Z,17.50
2019-04-06T14:25:05.036Z,17.60
2019-04-06T14:27:35.288Z,17.50
2019-04-06T14:30:13.794Z,17.40
2019-04-06T14:32:44.294Z,17.70
2019-04-06T14:35:30.136Z,17.30
2019-04-06T14:40:45.648Z,17.00
2019-04-06T14:43:19.121Z,17.40
2019-04-06T14:46:01.557Z,17.40
2019-04-06T14:48:48.027Z,16.90
2019-04-06T14:51:21.112Z,17.00
2019-04-06T14:54:07.967Z,17.40
2019-04-06T14:56:44.009Z,16.90
2019-04-06T14:59:14.255Z,17.20
2019-04-06T15:01:59.268Z,17.50
2019-04-06T15:04:44.424Z,17.10
2019-04-06T15:07:32.993Z,17.40
2019-04-06T15:10:03.209Z,17.40
2019-04-06T15:12:48.875Z,17.30
2019-04-06T15:15:24.624Z,17.30
2019-04-06T15:17:55.410Z,17.30
2019-04-06T15:20:38.023Z,17.40
2019-04-06T15:23:08.213Z,17.60
2019-04-06T15:25:47.763Z,17.60
2019-04-06T15:28:24.220Z,17.80
2019-04-06T15:31:12.864Z,17.80
2019-04-06T15:33:45.875Z,17.70
2019-04-06T15:38:54.782Z,18.10
2019-04-06T15:41:39.950Z,17.60
2019-04-06T15:44:19.297Z,17.40
2019-04-06T15:46:52.481Z,17.70
2019-04-06T15:49:31.725Z,18.00
2019-04-06T15:52:10.656Z,17.70
2019-04-06T15:54:42.853Z,18.00
2019-04-06T15:57:13.148Z,17.40
2019-04-06T15:59:52.308Z,17.30
2019-04-06T16:02:38.723Z,17.80
2019-04-06T16:05:18.084Z,17.70
2019-04-06T16:08:04.511Z,17.50
2019-04-06T16:10:34.732Z,17.50
2019-04-06T16:13:07.851Z,17.30
2019-04-06T16:15:43.620Z,17.50
2019-04-06T16:18:13.817Z,17.10
2019-04-06T16:20:44.190Z,17.20
2019-04-06T16:23:17.081Z,17.50
2019-04-06T16:26:02.748Z,17.00
2019-04-06T16:28:42.106Z,17.00
2019-04-06T16:31:27.260Z,17.40
2019-04-06T16:34:12.893Z,17.20
2019-04-06T16:36:43.208Z,17.30
2019-04-06T16:39:19.545Z,17.10
2019-04-06T16:42:06.653Z,17.20
2019-04-06T16:44:40.038Z,17.10
2019-04-06T16:47:19.380Z,16.80
2019-04-06T16:49:55.766Z,17.00
2019-04-06T16:52:31.961Z,17.30
2019-04-06T16:55:04.744Z,16.60
2019-04-06T16:57:41.188Z,17.10
2019-04-06T17:00:19.171Z,16.80
2019-04-06T17:02:43.493Z,16.60
2019-04-06T17:05:25.930Z,16.70
2019-04-06T17:08:09.737Z,16.70
2019-04-06T17:10:47.265Z,16.60
2019-04-06T17:13:17.702Z,16.70
2019-04-06T17:15:48.073Z,16.50
2019-04-06T17:18:21.071Z,16.50
2019-04-06T17:23:52.750Z,15.80
2019-04-06T17:26:28.899Z,16.20
2019-04-06T17:29:15.108Z,16.00
2019-04-06T17:31:51.390Z,15.80
2019-04-06T17:37:06.793Z,15.70
2019-04-06T17:42:15.693Z,15.20
2019-04-06T17:45:02.422Z,15.30
2019-04-06T17:47:41.610Z,14.90
2019-04-06T17:50:12.164Z,15.30
2019-04-06T17:52:48.332Z,14.90
2019-04-06T17:55:18.488Z,14.90
2019-04-06T17:58:05.060Z,15.00
2019-04-06T18:00:51.523Z,14.60
2019-04-06T18:03:21.714Z,14.80
2019-04-06T18:08:42.985Z,14.80
2019-04-06T18:11:13.556Z,15.00
2019-04-06T18:13:46.329Z,14.50
2019-04-06T18:16:14.945Z,14.20
2019-04-06T18:18:43.522Z,14.30
2019-04-06T18:21:12.128Z,13.90
2019-04-06T18:23:40.705Z,14.30
2019-04-06T18:26:09.258Z,13.70
2019-04-06T18:28:37.824Z,14.10
2019-04-06T18:31:11.091Z,14.20
2019-04-06T18:33:40.147Z,14.00
2019-04-06T18:36:08.805Z,13.60
2019-04-06T18:38:39.024Z,13.60
2019-04-06T18:41:07.965Z,13.80
2019-04-06T18:43:36.557Z,13.90
2019-04-06T18:46:05.545Z,13.30
2019-04-06T18:48:34.132Z,13.30
2019-04-06T18:51:02.657Z,13.30
2019-04-06T18:53:31.236Z,13.50
2019-04-06T18:55:59.792Z,12.80
2019-04-06T18:58:28.763Z,13.00
2019-04-06T19:00:57.421Z,13.20
2019-04-06T19:03:26.339Z,12.80
2019-04-06T19:05:54.950Z,12.90
2019-04-06T19:08:23.493Z,12.40
2019-04-06T19:10:52.558Z,13.10
2019-04-06T19:15:49.496Z,12.80
2019-04-06T19:18:18.462Z,12.60
2019-04-06T19:20:47.315Z,12.70
2019-04-06T19:23:15.905Z,12.70
2019-04-06T19:25:44.480Z,12.80
2019-04-06T19:28:13.025Z,12.80
2019-04-06T19:30:41.854Z,12.40
2019-04-06T19:33:22.360Z,12.10
2019-04-06T19:38:08.881Z,11.90
2019-04-06T19:40:37.450Z,12.50
2019-04-06T19:43:06.673Z,12.10
2019-04-06T19:45:35.239Z,12.10
2019-04-06T19:48:04.209Z,12.40
2019-04-06T19:50:32.829Z,12.20
2019-04-06T19:55:29.625Z,12.20
2019-04-06T19:57:59.693Z,12.20
2019-04-06T20:00:28.901Z,12.20
2019-04-06T20:02:57.938Z,12.10
2019-04-06T20:05:26.594Z,12.10
2019-04-06T20:07:55.715Z,11.90
2019-04-06T20:10:24.404Z,11.90
2019-04-06T20:12:52.948Z,11.50
2019-04-06T20:17:49.813Z,11.60
2019-04-06T20:20:18.669Z,11.10
2019-04-06T20:22:47.260Z,11.10
2019-04-06T20:25:15.993Z,11.10
2019-04-06T20:27:44.784Z,11.10
2019-04-06T20:30:13.769Z,11.10
2019-04-06T20:35:10.941Z,11.20
2019-04-06T20:37:39.525Z,11.20
2019-04-06T20:40:10.228Z,11.10
2019-04-06T20:42:39.375Z,10.70
2019-04-06T20:45:08.372Z,11.00
2019-04-06T20:47:37.061Z,10.80
2019-04-06T20:50:07.298Z,10.80
2019-04-06T20:52:36.060Z,10.60
2019-04-06T20:57:36.665Z,10.30
2019-04-06T21:00:08.055Z,10.40
2019-04-06T21:02:37.173Z,10.30
2019-04-06T21:05:07.946Z,10.30
2019-04-06T21:07:37.063Z,10.30
2019-04-06T21:10:08.839Z,10.10
2019-04-06T21:12:37.426Z,10.60
2019-04-06T21:15:16.883Z,10.10
2019-04-06T21:17:38.627Z,10.00
2019-04-06T21:20:07.733Z,10.00
2019-04-06T21:22:36.672Z,10.10
2019-04-06T21:25:06.973Z,10.20
2019-04-06T21:27:36.238Z,10.00
2019-04-06T21:30:10.323Z,10.00
2019-04-06T21:32:39.602Z,10.00
2019-04-06T21:35:08.361Z,9.90
2019-04-06T21:37:37.081Z,9.50
2019-04-06T21:40:06.657Z,9.40
2019-04-06T21:42:35.480Z,9.40
2019-04-06T21:45:06.408Z,9.40
2019-04-06T21:47:35.282Z,9.70
2019-04-06T21:50:06.796Z,9.30
2019-04-06T21:52:35.524Z,9.80
2019-04-06T21:55:06.137Z,9.40
2019-04-06T21:57:35.392Z,9.70
2019-04-06T22:00:07.397Z,9.80
2019-04-06T22:02:36.121Z,9.60
2019-04-06T22:05:08.254Z,9.90
2019-04-06T22:07:47.137Z,9.70
2019-04-06T22:10:08.373Z,9.70
2019-04-06T22:12:37.702Z,9.70
2019-04-06T22:15:07.681Z,9.60
2019-04-06T22:17:36.207Z,9.50
2019-04-06T22:20:05.505Z,9.60
2019-04-06T22:22:34.045Z,9.70
2019-04-06T22:27:31.723Z,9.70
2019-04-06T22:30:00.369Z,9.30
2019-04-06T22:32:28.941Z,9.40
2019-04-06T22:34:57.951Z,9.20
2019-04-06T22:37:26.513Z,9.20
2019-04-06T22:39:55.088Z,9.40
2019-04-06T22:42:23.845Z,9.40
2019-04-06T22:44:52.397Z,9.60
2019-04-06T22:47:20.991Z,9.50
2019-04-06T22:49:49.857Z,9.60
2019-04-06T22:52:18.445Z,9.60
2019-04-06T22:54:47.016Z,9.50
2019-04-06T22:57:15.973Z,9.10
2019-04-06T22:59:44.786Z,9.10
2019-04-06T23:04:48.601Z,9.30
2019-04-06T23:12:11.947Z,9.10
2019-04-06T23:14:40.579Z,9.10
2019-04-06T23:17:09.115Z,9.20
2019-04-06T23:19:37.676Z,9.10
2019-04-06T23:22:06.387Z,9.20
2019-04-06T23:24:35.028Z,9.00
2019-04-06T23:27:03.715Z,8.70
2019-04-06T23:29:32.529Z,8.80
2019-04-06T23:32:01.130Z,8.80
2019-04-06T23:34:30.300Z,8.50
2019-04-06T23:36:59.133Z,8.90
2019-04-06T23:39:28.296Z,8.90
2019-04-06T23:41:57.011Z,8.60
2019-04-06T23:44:26.052Z,8.80
2019-04-06T23:46:54.784Z,8.70
2019-04-06T23:51:52.247Z,8.50
2019-04-06T23:54:20.776Z,9.00
2019-04-06T23:56:49.682Z,8.30
2019-04-06T23:59:18.782Z,8.80
